Time;durP1;ratioP1;P1;durP2;ratioP2;P2;SDS_P1;SDS_P2;PMS_P1;PMS_P2;Temp;Humidity;BMP_temperature;BMP_pressure;BME280_temperature;BME280_humidity;BME280_pressure;Samples;Min_cycle;Max_cycle;Signal;HPM_P1;HPM_P2
2022/11/12 00:00:35;;;;;;;11.80;7.13;;;;;;;26.43;20.82;99636.59;6246038;22;19939;-81
2022/11/12 00:03:02;;;;;;;12.52;7.10;;;;;;;26.75;20.58;99633.56;6246385;22;19927;-81
2022/11/12 00:05:28;;;;;;;14.05;7.30;;;;;;;27.01;20.09;99634.94;6246415;22;19904;-81
2022/11/12 00:07:54;;;;;;;10.82;6.20;;;;;;;27.06;19.67;99640.16;6246428;23;19930;-81
2022/11/12 00:10:20;;;;;;;11.40;6.80;;;;;;;27.17;19.78;99640.84;6246245;23;19912;-81
2022/11/12 00:12:46;;;;;;;9.15;5.85;;;;;;;27.01;19.94;99638.59;6246111;22;20314;-81
2022/11/12 00:15:12;;;;;;;10.10;5.72;;;;;;;27.01;19.76;99646.22;6246279;23;19908;-82
2022/11/12 00:17:39;;;;;;;12.63;7.15;;;;;;;26.76;19.82;99652.09;6245800;23;19931;-81
2022/11/12 00:20:06;;;;;;;11.98;6.45;;;;;;;26.77;19.71;99650.09;6245928;23;20233;-81
2022/11/12 00:22:32;;;;;;;13.18;7.05;;;;;;;26.71;19.78;99644.84;6246306;22;20384;-81
2022/11/12 00:24:58;;;;;;;12.52;6.63;;;;;;;26.69;19.82;99644.47;6246255;23;20367;-81
2022/11/12 00:27:24;;;;;;;13.00;7.47;;;;;;;26.48;19.77;99641.81;6246742;23;19918;-81
2022/11/12 00:29:50;;;;;;;11.80;6.70;;;;;;;26.35;19.91;99643.50;6245749;22;19935;-81
2022/11/12 00:32:16;;;;;;;10.13;5.72;;;;;;;26.31;20.29;99639.09;6245746;23;19911;-81
2022/11/12 00:34:42;;;;;;;11.50;5.95;;;;;;;26.44;19.99;99638.19;6245812;23;19943;-81
2022/11/12 00:37:08;;;;;;;10.60;6.13;;;;;;;26.27;20.05;99641.94;6245612;23;19961;-81
2022/11/12 00:39:34;;;;;;;10.95;6.32;;;;;;;26.04;20.12;99645.25;6246138;23;19919;-81
2022/11/12 00:42:00;;;;;;;10.82;6.50;;;;;;;26.04;20.28;99645.25;6245707;23;19995;-81
2022/11/12 00:44:28;;;;;;;11.25;6.32;;;;;;;26.01;20.32;99654.53;6245938;23;19911;-81
2022/11/12 00:46:54;;;;;;;12.88;6.05;;;;;;;26.12;20.09;99657.31;6245949;22;19916;-81
2022/11/12 00:49:21;;;;;;;14.03;6.53;;;;;;;26.12;20.38;99656.50;6245816;22;19988;-81
2022/11/12 00:51:47;;;;;;;11.50;5.63;;;;;;;26.20;20.45;99656.06;6245628;22;19907;-81
2022/11/12 00:54:13;;;;;;;11.60;6.60;;;;;;;26.27;20.30;99658.03;6246195;22;19914;-81
2022/11/12 00:56:39;;;;;;;9.73;6.13;;;;;;;26.20;20.07;99652.44;6245946;23;20277;-81
2022/11/12 00:59:06;;;;;;;11.85;6.60;;;;;;;26.24;19.79;99654.03;6246329;23;19983;-81
2022/11/12 01:01:32;;;;;;;11.65;6.82;;;;;;;26.32;20.21;99651.97;6245606;23;19907;-81
2022/11/12 01:03:59;;;;;;;13.38;6.65;;;;;;;26.20;19.96;99646.81;6245730;23;19912;-81
2022/11/12 01:06:25;;;;;;;12.20;7.27;;;;;;;26.03;20.10;99645.66;6245499;23;19911;-81
2022/11/12 01:08:53;;;;;;;14.73;7.25;;;;;;;26.04;20.29;99647.28;6245851;23;20011;-81
2022/11/12 01:11:25;;;;;;;12.32;6.97;;;;;;;26.13;20.46;99649.66;6245459;22;19969;-81
2022/11/12 01:13:59;;;;;;;13.38;6.95;;;;;;;26.26;20.12;99648.78;6245689;22;19903;-81
2022/11/12 01:16:29;;;;;;;12.25;7.85;;;;;;;26.39;19.61;99658.38;6245597;22;20012;-81
2022/11/12 01:18:59;;;;;;;13.60;6.93;;;;;;;26.43;19.58;99659.16;6245570;22;19907;-81
2022/11/12 01:21:27;;;;;;;11.88;7.43;;;;;;;26.60;19.20;99658.22;6245358;22;19957;-81
2022/11/12 01:23:53;;;;;;;12.23;6.68;;;;;;;26.61;19.18;99651.38;6245917;22;19908;-81
2022/11/12 01:26:21;;;;;;;13.70;7.93;;;;;;;26.50;19.49;99659.09;6244541;23;19917;-81
2022/11/12 01:28:48;;;;;;;11.30;6.80;;;;;;;26.15;20.42;99656.50;6245700;22;19911;-81
2022/11/12 01:31:20;;;;;;;12.05;7.95;;;;;;;26.12;20.59;99664.94;6245825;22;19912;-81
2022/11/12 01:33:48;;;;;;;16.92;6.75;;;;;;;26.14;20.67;99654.88;6245565;22;19975;-81
2022/11/12 01:36:16;;;;;;;14.70;6.57;;;;;;;26.25;20.40;99658.47;6245023;22;19960;-81
2022/11/12 01:38:44;;;;;;;13.25;7.68;;;;;;;26.28;19.74;99656.84;6245578;22;19907;-81
2022/11/12 01:41:13;;;;;;;13.82;7.10;;;;;;;26.34;19.71;99653.16;6245974;22;19931;-81
2022/11/12 01:43:39;;;;;;;13.43;6.78;;;;;;;26.50;19.87;99653.47;6247312;22;19911;-81
2022/11/12 01:46:20;;;;;;;14.95;7.50;;;;;;;26.53;19.56;99663.91;6245729;23;19920;-81
2022/11/12 01:48:52;;;;;;;11.35;6.78;;;;;;;26.60;19.62;99651.78;6247554;22;19985;-81
2022/11/12 01:51:22;;;;;;;13.23;7.35;;;;;;;26.69;19.56;99652.13;6247593;22;19948;-81
2022/11/12 01:53:52;;;;;;;15.07;7.95;;;;;;;26.51;19.17;99662.72;6247810;22;19911;-81
2022/11/12 01:56:21;;;;;;;17.73;8.43;;;;;;;26.51;19.30;99657.88;6247740;22;20290;-81
2022/11/12 01:58:51;;;;;;;14.15;7.40;;;;;;;26.28;19.10;99663.25;6247811;22;19957;-81
2022/11/12 02:01:17;;;;;;;12.27;6.95;;;;;;;26.47;18.71;99656.28;6247226;22;19947;-81
2022/11/12 02:03:43;;;;;;;14.07;6.82;;;;;;;26.53;18.74;99657.47;6247343;23;20253;-81
2022/11/12 02:06:13;;;;;;;11.45;6.82;;;;;;;26.49;18.71;99657.47;6247594;23;19915;-81
2022/11/12 02:08:40;;;;;;;12.13;6.90;;;;;;;26.48;18.68;99658.72;6247485;22;19946;-81
2022/11/12 02:11:16;;;;;;;9.00;5.85;;;;;;;26.45;18.77;99665.16;6247651;22;19914;-81
2022/11/12 02:13:56;;;;;;;11.07;6.43;;;;;;;26.57;18.59;99661.06;6247413;22;20016;-81
2022/11/12 02:16:27;;;;;;;12.30;6.70;;;;;;;26.32;18.75;99657.59;6247097;22;20352;-81
2022/11/12 02:18:53;;;;;;;12.65;5.70;;;;;;;25.94;19.51;99657.38;6246955;22;19916;-81
2022/11/12 02:21:21;;;;;;;13.50;6.93;;;;;;;25.57;19.92;99661.94;6247351;23;19918;-80
2022/11/12 02:24:11;;;;;;;11.48;6.65;;;;;;;25.57;19.95;99648.69;6247414;22;19922;-81
2022/11/12 02:26:44;;;;;;;13.00;6.78;;;;;;;25.82;19.76;99648.56;6247154;23;19907;-81
2022/11/12 02:29:10;;;;;;;11.63;6.15;;;;;;;25.87;19.71;99654.59;6247616;22;19935;-81
2022/11/12 02:31:36;;;;;;;10.10;5.70;;;;;;;25.57;19.52;99653.50;6247448;23;19907;-81
2022/11/12 02:34:03;;;;;;;10.93;6.50;;;;;;;25.59;19.81;99653.88;6246832;23;19938;-81
2022/11/12 02:36:29;;;;;;;11.75;6.07;;;;;;;25.62;19.52;99651.06;6246900;23;20318;-80
2022/11/12 02:38:55;;;;;;;12.68;6.22;;;;;;;25.64;19.52;99653.47;6245463;23;20279;-80
2022/11/12 02:41:21;;;;;;;10.90;6.20;;;;;;;25.67;19.94;99655.47;6247290;23;19907;-80
2022/11/12 02:43:47;;;;;;;15.20;6.90;;;;;;;25.67;19.70;99652.66;6245102;23;19916;-81
2022/11/12 02:46:14;;;;;;;13.48;7.43;;;;;;;25.78;19.73;99654.22;6247063;23;19943;-81
2022/11/12 02:48:40;;;;;;;11.07;6.68;;;;;;;25.74;19.68;99650.59;6246927;22;19918;-81
2022/11/12 02:51:06;;;;;;;15.35;6.45;;;;;;;25.74;20.04;99656.22;6246864;23;19915;-80
2022/11/12 02:53:33;;;;;;;9.30;6.05;;;;;;;25.69;19.65;99648.25;6246210;23;20358;-81
2022/11/12 02:56:00;;;;;;;10.25;6.10;;;;;;;25.85;19.37;99650.59;6247064;22;19915;-81
2022/11/12 02:58:27;;;;;;;11.73;6.38;;;;;;;25.86;19.31;99658.59;6246956;23;19953;-80
2022/11/12 03:00:55;;;;;;;13.13;7.70;;;;;;;25.78;19.54;99653.41;6247071;22;19935;-81
2022/11/12 03:03:21;;;;;;;12.50;6.80;;;;;;;25.58;19.62;99649.50;6246833;22;19930;-80
2022/11/12 03:05:57;;;;;;;11.75;6.97;;;;;;;25.37;20.08;99653.09;6246869;23;19907;-81
2022/11/12 03:08:24;;;;;;;12.88;6.68;;;;;;;25.43;20.24;99648.69;6246926;22;20016;-80
2022/11/12 03:10:50;;;;;;;11.33;6.57;;;;;;;25.72;20.33;99644.59;6246683;22;19907;-80
2022/11/12 03:13:16;;;;;;;11.13;6.47;;;;;;;26.05;19.99;99646.06;6246953;22;20392;-80
2022/11/12 03:15:42;;;;;;;14.02;6.88;;;;;;;26.32;19.37;99644.34;6246426;22;19915;-81
2022/11/12 03:18:08;;;;;;;12.02;7.50;;;;;;;26.39;19.23;99640.66;6246976;23;20282;-81
2022/11/12 03:20:34;;;;;;;11.38;6.20;;;;;;;26.56;18.98;99651.00;6247087;23;19911;-80
2022/11/12 03:23:06;;;;;;;10.68;5.88;;;;;;;26.52;18.71;99656.66;6246748;23;19912;-81
2022/11/12 03:25:32;;;;;;;13.02;7.13;;;;;;;26.39;17.96;99658.38;6246438;22;20434;-80
2022/11/12 03:28:01;;;;;;;8.97;6.23;;;;;;;25.94;18.53;99663.00;6246630;23;19911;-80
2022/11/12 03:30:28;;;;;;;11.38;6.55;;;;;;;25.70;18.66;99663.09;6246572;22;19907;-80
2022/11/12 03:32:54;;;;;;;12.35;6.65;;;;;;;25.83;18.39;99656.63;6245577;23;19953;-80
2022/11/12 03:35:21;;;;;;;8.95;6.00;;;;;;;25.19;19.43;99664.38;6246690;23;19908;-80
2022/11/12 03:37:47;;;;;;;11.02;5.95;;;;;;;24.95;19.93;99656.00;6246637;22;19908;-80
2022/11/12 03:40:13;;;;;;;11.75;6.60;;;;;;;24.99;19.91;99656.78;6246595;23;19919;-80
2022/11/12 03:42:45;;;;;;;11.88;6.55;;;;;;;25.15;19.55;99649.53;6246422;23;20326;-80
2022/11/12 03:45:11;;;;;;;11.60;6.70;;;;;;;25.25;19.18;99648.72;6244228;23;20006;-81
2022/11/12 03:47:43;;;;;;;9.85;5.68;;;;;;;25.38;19.26;99654.72;6246415;23;19969;-80
2022/11/12 03:50:11;;;;;;;11.52;6.90;;;;;;;25.58;19.19;99649.50;6246393;22;19911;-80
2022/11/12 03:52:38;;;;;;;13.23;6.78;;;;;;;25.62;19.08;99651.06;6245041;23;19907;-80
2022/11/12 03:55:05;;;;;;;12.20;6.03;;;;;;;25.49;19.28;99652.69;6246537;22;20371;-80
2022/11/12 03:57:31;;;;;;;13.25;6.32;;;;;;;25.66;19.15;99651.06;6246396;22;20008;-80
2022/11/12 03:59:57;;;;;;;9.93;6.15;;;;;;;25.40;19.22;99646.69;6246155;23;19907;-80
2022/11/12 04:02:25;;;;;;;10.07;5.85;;;;;;;25.40;19.71;99647.47;6246607;23;19915;-80
2022/11/12 04:10:23;;;;;;;9.80;5.90;;;;;;;25.34;18.88;99651.13;6246383;23;20345;-80
2022/11/12 04:15:34;;;;;;;9.43;5.80;;;;;;;25.42;18.76;99645.06;6245793;23;19922;-81
2022/11/12 04:21:49;;;;;;;10.05;6.32;;;;;;;24.91;19.56;99644.75;6246150;23;19944;-80
2022/11/12 04:23:30;;;;;;;13.63;7.03;;;;;;;24.87;19.86;99648.75;6246555;23;19911;-80
2022/11/12 04:30:14;;;;;;;9.13;5.47;;;;;;;25.02;19.22;99645.53;6245976;23;19919;-80
2022/11/12 04:31:30;;;;;;;9.20;4.65;;;;;;;25.24;19.30;99641.50;6246078;23;19987;-81
2022/11/12 04:34:27;;;;;;;8.32;5.25;;;;;;;25.28;19.76;99647.09;6246124;23;19938;-80
2022/11/12 04:36:42;;;;;;;9.80;5.70;;;;;;;25.36;19.13;99643.88;6246228;23;19950;-80
2022/11/12 04:39:08;;;;;;;11.60;5.50;;;;;;;25.21;19.02;99647.13;6246135;23;19907;-80
2022/11/12 04:47:03;;;;;;;8.77;4.75;;;;;;;25.26;19.22;99639.09;6246550;23;20389;-80
2022/11/12 04:49:29;;;;;;;9.65;5.72;;;;;;;25.23;19.59;99639.88;6245637;23;19938;-80
2022/11/12 04:52:03;;;;;;;9.35;5.22;;;;;;;25.38;19.14;99633.03;6245670;23;20330;-80
2022/11/12 04:54:30;;;;;;;9.65;5.68;;;;;;;25.49;18.56;99635.03;6245932;23;19908;-80
2022/11/12 04:56:56;;;;;;;9.15;4.80;;;;;;;25.37;18.67;99639.84;6245992;22;19915;-80
2022/11/12 04:59:22;;;;;;;7.78;4.03;;;;;;;24.97;19.49;99640.31;6245533;23;19907;-80
2022/11/12 05:01:48;;;;;;;8.73;5.25;;;;;;;24.71;19.94;99632.28;6245721;23;20338;-80
2022/11/12 05:04:14;;;;;;;10.98;5.80;;;;;;;24.73;19.95;99632.69;6245921;23;19912;-80
2022/11/12 05:06:52;;;;;;;11.07;5.50;;;;;;;24.97;19.82;99634.69;6245832;23;19916;-80
2022/11/12 05:09:20;;;;;;;10.75;5.75;;;;;;;25.27;19.05;99635.06;6245750;22;20357;-80
2022/11/12 05:11:46;;;;;;;9.20;5.45;;;;;;;25.46;18.83;99638.66;6245328;22;20290;-80
2022/11/12 05:14:13;;;;;;;11.43;5.90;;;;;;;25.60;18.19;99641.44;6245540;22;19927;-80
2022/11/12 05:16:39;;;;;;;8.33;5.23;;;;;;;25.68;17.98;99631.75;6245209;23;19920;-80
2022/11/12 05:19:05;;;;;;;9.20;6.10;;;;;;;25.69;17.94;99631.34;6246119;23;19914;-80
2022/11/12 05:24:16;;;;;;;8.38;5.28;;;;;;;25.35;18.48;99633.84;6245587;23;19982;-80
2022/11/12 05:26:42;;;;;;;7.30;4.90;;;;;;;25.38;18.38;99632.22;6245078;23;20321;-80
2022/11/12 05:29:08;;;;;;;10.68;5.65;;;;;;;25.15;18.86;99637.50;6245372;23;19912;-80
2022/11/12 05:31:34;;;;;;;9.65;4.82;;;;;;;24.87;19.03;99631.91;6245626;23;20223;-80
2022/11/12 05:34:00;;;;;;;13.90;5.80;;;;;;;24.56;19.33;99625.84;6245489;23;20292;-80
2022/11/12 05:36:26;;;;;;;8.20;4.57;;;;;;;24.76;19.10;99636.69;6245800;23;19991;-80
2022/11/12 05:38:52;;;;;;;7.47;4.25;;;;;;;25.04;19.32;99639.53;6245654;23;19962;-80
2022/11/12 05:41:18;;;;;;;9.30;5.45;;;;;;;25.30;18.38;99647.50;6245225;23;19911;-80
2022/11/12 05:43:44;;;;;;;7.60;4.75;;;;;;;25.34;18.49;99649.09;6245195;23;20210;-80
2022/11/12 05:46:10;;;;;;;7.88;4.45;;;;;;;25.40;18.29;99652.31;6245303;23;20269;-81
2022/11/12 05:48:36;;;;;;;9.35;4.60;;;;;;;25.53;18.31;99650.72;6245612;23;19911;-81
2022/11/12 05:51:03;;;;;;;6.88;3.75;;;;;;;25.64;18.20;99657.09;6245566;23;20356;-81
2022/11/12 05:53:29;;;;;;;8.93;5.30;;;;;;;25.25;18.30;99648.72;6245645;22;19911;-81
2022/11/12 05:56:01;;;;;;;11.15;5.20;;;;;;;24.67;19.13;99657.56;6245025;23;20408;-80
2022/11/12 05:58:27;;;;;;;11.23;5.88;;;;;;;24.65;19.25;99661.97;6245937;22;19911;-80
2022/11/12 06:00:53;;;;;;;7.18;4.22;;;;;;;24.90;19.24;99659.97;6245186;23;19912;-80
2022/11/12 06:03:19;;;;;;;8.75;4.57;;;;;;;24.83;18.90;99662.00;6245668;23;19915;-80
2022/11/12 06:05:45;;;;;;;9.25;4.82;;;;;;;24.62;19.34;99660.75;6245395;23;20330;-80
2022/11/12 06:08:11;;;;;;;8.13;4.68;;;;;;;24.61;19.32;99659.16;6245740;23;19980;-80
2022/11/12 06:10:37;;;;;;;8.85;4.40;;;;;;;24.96;19.04;99668.81;6245191;23;19912;-80
2022/11/12 06:13:03;;;;;;;9.95;5.00;;;;;;;25.31;18.55;99658.34;6244008;23;20294;-80
2022/11/12 06:15:29;;;;;;;8.80;5.05;;;;;;;25.54;18.28;99668.34;6244263;23;19911;-80
2022/11/12 06:17:55;;;;;;;9.65;5.07;;;;;;;25.54;18.25;99669.16;6243625;22;19911;-80
2022/11/12 06:20:22;;;;;;;6.50;4.55;;;;;;;25.56;18.29;99677.19;6245300;23;19977;-80
2022/11/12 06:22:49;;;;;;;8.90;5.35;;;;;;;25.41;18.26;99676.41;6245504;22;20329;-80
2022/11/12 06:25:15;;;;;;;6.38;4.13;;;;;;;25.30;18.82;99676.41;6243580;22;20417;-80
2022/11/12 06:27:42;;;;;;;6.60;3.28;;;;;;;25.38;19.12;99677.22;6245700;22;19912;-80
2022/11/12 06:30:08;;;;;;;6.95;3.90;;;;;;;25.59;18.79;99684.81;6247402;23;20336;-80
2022/11/12 06:32:35;;;;;;;8.20;4.22;;;;;;;25.84;18.56;99691.19;6246968;22;20044;-80
2022/11/12 06:35:01;;;;;;;7.28;3.42;;;;;;;25.83;18.54;99693.22;6246792;23;19911;-80
2022/11/12 06:37:27;;;;;;;5.63;3.45;;;;;;;25.86;18.91;99685.94;6247137;23;20332;-80
2022/11/12 06:39:53;;;;;;;6.20;4.03;;;;;;;26.02;18.71;99686.31;6246960;23;20286;-80
2022/11/12 06:42:19;;;;;;;6.03;4.00;;;;;;;25.66;19.22;99694.06;6247152;23;20338;-80
2022/11/12 06:44:45;;;;;;;5.53;3.67;;;;;;;25.89;18.78;99699.19;6246796;23;19919;-80
2022/11/12 06:47:11;;;;;;;10.47;4.37;;;;;;;25.79;19.00;99689.59;6245452;23;19982;-80
2022/11/12 06:49:37;;;;;;;7.80;4.40;;;;;;;25.66;19.20;99694.06;6246874;22;19911;-80
2022/11/12 06:52:03;;;;;;;9.70;4.43;;;;;;;25.71;19.48;99692.84;6247304;23;19912;-80
2022/11/12 06:54:29;;;;;;;7.18;4.05;;;;;;;25.87;19.49;99694.00;6246749;23;19961;-80
2022/11/12 06:56:55;;;;;;;6.40;3.90;;;;;;;26.21;19.31;99699.88;6247046;23;19975;-80
2022/11/12 06:59:21;;;;;;;8.63;4.05;;;;;;;26.45;19.01;99693.31;6246963;23;19907;-80
2022/11/12 07:01:47;;;;;;;6.50;3.45;;;;;;;26.51;19.25;99697.31;6246923;23;20284;-80
2022/11/12 07:04:13;;;;;;;12.07;4.78;;;;;;;26.66;18.68;99693.19;6246811;23;20330;-80
2022/11/12 07:06:39;;;;;;;7.70;4.57;;;;;;;26.62;19.05;99700.06;6246842;23;19908;-80
2022/11/12 07:09:06;;;;;;;8.27;4.88;;;;;;;25.90;19.74;99709.25;6244907;23;19907;-80
2022/11/12 07:11:32;;;;;;;7.70;4.15;;;;;;;26.03;19.71;99710.41;6246934;23;19907;-80
2022/11/12 07:13:58;;;;;;;8.60;4.78;;;;;;;26.25;19.30;99706.31;6246637;23;19908;-80
2022/11/12 07:16:24;;;;;;;10.02;3.95;;;;;;;26.35;19.70;99704.66;6246746;23;20304;-80
2022/11/12 07:18:50;;;;;;;8.80;5.03;;;;;;;26.52;19.77;99704.56;6246832;23;19916;-80
2022/11/12 07:21:18;;;;;;;9.13;4.65;;;;;;;26.69;19.58;99714.09;6246654;23;19907;-80
2022/11/12 07:23:46;;;;;;;10.57;5.70;;;;;;;26.42;19.92;99711.03;6246611;22;19908;-80
2022/11/12 07:26:15;;;;;;;12.20;5.95;;;;;;;26.50;19.92;99712.63;6246457;22;19985;-80
2022/11/12 07:28:41;;;;;;;12.63;6.57;;;;;;;26.82;19.92;99709.59;6246964;22;19978;-80
2022/11/12 07:31:10;;;;;;;11.02;5.85;;;;;;;27.16;19.26;99709.75;6246708;23;20229;-80
2022/11/12 07:33:37;;;;;;;10.02;5.97;;;;;;;27.29;19.14;99697.53;6247073;22;19954;-80
2022/11/12 07:36:05;;;;;;;8.63;5.07;;;;;;;27.42;19.44;99707.09;6246645;22;19943;-80
2022/11/12 07:38:35;;;;;;;9.95;5.15;;;;;;;27.62;19.25;99698.03;6246251;22;19943;-80
2022/11/12 07:41:06;;;;;;;8.20;4.80;;;;;;;27.78;19.00;99696.25;6246069;22;19908;-81
2022/11/12 07:43:34;;;;;;;8.13;5.07;;;;;;;27.93;18.96;99689.22;6246553;22;19915;-80
2022/11/12 07:46:02;;;;;;;8.02;5.10;;;;;;;27.96;18.85;99696.03;6246146;22;19942;-81
2022/11/12 07:48:30;;;;;;;9.73;5.05;;;;;;;27.98;18.78;99691.56;6246780;22;19947;-80
2022/11/12 07:51:14;;;;;;;6.90;4.53;;;;;;;27.81;18.99;99689.75;6246255;22;19954;-80
2022/11/12 07:53:41;;;;;;;7.63;4.82;;;;;;;28.08;19.09;99687.84;6246601;22;20012;-80
2022/11/12 07:56:11;;;;;;;7.57;4.75;;;;;;;28.06;19.22;99690.28;6246515;22;20348;-80
2022/11/12 07:58:37;;;;;;;8.82;6.15;;;;;;;27.94;19.34;99690.00;6246407;22;19930;-80
2022/11/12 08:01:21;;;;;;;8.30;5.70;;;;;;;28.10;19.45;99697.91;6246376;23;19982;-80
2022/11/12 08:03:47;;;;;;;8.10;4.80;;;;;;;28.25;19.46;99691.66;6246460;22;20004;-81
2022/11/12 08:06:13;;;;;;;7.20;4.15;;;;;;;28.32;19.21;99690.75;6245994;23;19952;-80
2022/11/12 08:08:39;;;;;;;7.63;4.28;;;;;;;28.17;19.57;99698.59;6246169;23;19935;-80
2022/11/12 08:11:05;;;;;;;7.03;4.82;;;;;;;28.05;19.75;99702.78;6246101;23;19918;-81
2022/11/12 08:13:31;;;;;;;7.25;4.60;;;;;;;28.22;19.69;99700.16;6246405;23;19945;-81
2022/11/12 08:15:58;;;;;;;7.15;4.50;;;;;;;28.28;19.86;99699.28;6245792;23;20373;-81
2022/11/12 08:18:25;;;;;;;8.18;4.90;;;;;;;28.17;20.00;99704.25;6246252;23;19918;-81
2022/11/12 08:20:52;;;;;;;7.47;4.53;;;;;;;28.25;19.94;99702.94;6246012;22;19907;-81
2022/11/12 08:23:18;;;;;;;7.25;4.00;;;;;;;28.13;20.27;99708.34;6246114;22;19912;-81
2022/11/12 08:25:44;;;;;;;6.78;4.03;;;;;;;28.38;19.80;99706.78;6246379;23;19927;-81
2022/11/12 08:28:10;;;;;;;6.03;3.78;;;;;;;28.58;19.88;99689.97;6246162;23;20322;-80
2022/11/12 08:30:36;;;;;;;6.68;3.78;;;;;;;28.74;19.79;99707.94;6245788;23;19923;-81
2022/11/12 08:33:04;;;;;;;6.45;3.42;;;;;;;28.90;19.59;99701.63;6245690;23;19907;-81
2022/11/12 08:35:31;;;;;;;6.68;3.85;;;;;;;29.00;19.58;99717.63;6245701;22;19953;-81
2022/11/12 08:38:02;;;;;;;7.97;4.15;;;;;;;29.09;19.49;99703.72;6245893;22;19904;-81
2022/11/12 08:40:30;;;;;;;5.80;4.05;;;;;;;29.18;19.70;99709.66;6246006;22;20008;-81
2022/11/12 08:43:01;;;;;;;6.07;3.80;;;;;;;29.23;19.41;99714.03;6246103;22;19911;-81
2022/11/12 08:45:28;;;;;;;7.28;3.63;;;;;;;29.28;19.37;99717.19;6245634;22;19933;-81
2022/11/12 08:48:02;;;;;;;4.78;3.20;;;;;;;29.32;19.16;99719.94;6245984;22;20318;-81
2022/11/12 08:50:29;;;;;;;5.72;3.45;;;;;;;29.36;19.25;99715.00;6245043;22;20019;-81
2022/11/12 08:53:03;;;;;;;6.05;3.58;;;;;;;29.37;19.19;99710.94;6245532;22;19907;-81
2022/11/12 08:55:32;;;;;;;5.47;3.53;;;;;;;29.47;19.28;99715.63;6246169;22;20019;-81
2022/11/12 08:58:01;;;;;;;3.10;2.78;;;;;;;29.63;19.25;99712.09;6246330;22;19915;-81
2022/11/12 09:00:42;;;;;;;5.35;3.33;;;;;;;29.67;19.46;99719.28;6245662;22;20238;-81
2022/11/12 09:03:14;;;;;;;4.15;2.85;;;;;;;29.65;19.21;99723.78;6245668;22;20028;-81
2022/11/12 09:05:41;;;;;;;3.58;2.80;;;;;;;29.69;19.20;99724.50;6245292;22;19910;-81
2022/11/12 09:08:13;;;;;;;3.97;2.78;;;;;;;29.69;19.30;99724.50;6245487;23;19911;-81
2022/11/12 09:10:40;;;;;;;5.50;4.05;;;;;;;29.82;18.88;99725.50;6245825;22;20507;-81
2022/11/12 09:13:06;;;;;;;6.53;3.40;;;;;;;29.87;19.41;99730.69;6245421;23;20317;-81
2022/11/12 09:15:32;;;;;;;3.53;2.55;;;;;;;29.78;19.40;99725.56;6245742;23;19918;-81
2022/11/12 09:18:00;;;;;;;3.90;2.83;;;;;;;29.92;19.59;99721.69;6245768;23;20310;-81
2022/11/12 09:20:27;;;;;;;5.50;2.50;;;;;;;30.11;19.67;99720.09;6245261;22;19919;-81
2022/11/12 09:22:58;;;;;;;4.40;3.17;;;;;;;30.12;19.93;99728.16;6245691;22;20265;-81
2022/11/12 09:25:24;;;;;;;;;;;;;;;30.04;19.25;99718.19;6246187;22;19982;-81
2022/11/12 09:27:50;;;;;;;6.50;3.20;;;;;;;30.02;19.00;99717.81;6246068;23;20229;-81
2022/11/12 09:30:16;;;;;;;4.25;2.78;;;;;;;29.87;19.58;99716.53;6245769;23;19912;-81
2022/11/12 09:32:42;;;;;;;5.03;2.85;;;;;;;29.40;19.80;99715.75;6245141;23;20222;-81
2022/11/12 09:35:08;;;;;;;3.95;2.47;;;;;;;29.36;20.37;99715.00;6245506;23;20310;-81
2022/11/12 09:37:37;;;;;;;3.90;3.15;;;;;;;28.88;20.52;99721.03;6245516;23;19911;-81
2022/11/12 09:40:09;;;;;;;6.13;3.50;;;;;;;28.36;21.47;99719.75;6245352;23;19914;-81
2022/11/12 09:42:36;;;;;;;6.15;3.67;;;;;;;27.17;22.79;99725.44;6243464;22;20012;-81
2022/11/12 09:45:17;;;;;;;6.80;3.75;;;;;;;26.41;23.90;99726.34;6244931;23;20015;-81
2022/11/12 09:47:50;;;;;;;5.80;4.05;;;;;;;25.95;23.72;99720.88;6245371;22;20020;-81
2022/11/12 09:50:39;;;;;;;5.63;3.67;;;;;;;26.45;23.77;99727.13;6245687;22;20238;-81
2022/11/12 09:53:18;;;;;;;7.90;4.82;;;;;;;26.08;24.44;99719.25;6245483;22;20399;-81
2022/11/12 09:55:48;;;;;;;6.85;5.10;;;;;;;25.33;26.14;99717.78;6245533;22;20449;-81
2022/11/12 09:58:17;;;;;;;7.32;5.03;;;;;;;25.82;24.28;99721.72;6245952;22;19903;-81
2022/11/12 10:01:08;;;;;;;9.90;5.65;;;;;;;26.70;22.96;99718.50;6245472;22;19914;-81
2022/11/12 10:03:51;;;;;;;6.68;4.25;;;;;;;26.32;24.41;99706.28;6246165;22;20004;-82
2022/11/12 10:06:28;;;;;;;6.65;4.38;;;;;;;26.43;24.69;99714.66;6247779;22;19931;-81
2022/11/12 10:09:19;;;;;;;7.00;4.75;;;;;;;26.93;23.01;99709.53;6247628;22;20004;-81
2022/11/12 10:14:51;;;;;;;7.65;4.40;;;;;;;27.89;22.08;99708.19;6244164;23;19914;-81
2022/11/12 10:17:40;;;;;;;5.15;3.78;;;;;;;28.17;22.08;99709.13;6247079;23;20472;-81
2022/11/12 10:20:28;;;;;;;5.88;3.90;;;;;;;27.68;23.24;99702.78;6247723;22;20032;-81
2022/11/12 10:23:14;;;;;;;7.95;4.30;;;;;;;27.25;24.22;99707.25;6247663;22;20067;-81
2022/11/12 10:25:44;;;;;;;9.52;5.57;;;;;;;27.62;22.03;99709.31;6247223;22;20087;-81
2022/11/12 10:28:33;;;;;;;7.90;5.32;;;;;;;27.86;21.55;99703.41;6247353;22;20004;-81
2022/11/12 10:31:09;;;;;;;6.00;4.10;;;;;;;28.37;21.22;99699.56;6246911;22;20020;-81
2022/11/12 10:33:35;;;;;;;5.32;3.80;;;;;;;28.30;21.72;99708.13;6247296;22;20244;-81
2022/11/12 10:36:24;;;;;;;6.50;4.40;;;;;;;28.63;21.33;99700.84;6247141;23;19908;-82
2022/11/12 10:38:53;;;;;;;7.93;4.32;;;;;;;29.07;20.97;99705.38;6229386;22;19907;-81
2022/11/12 10:41:29;;;;;;;7.05;4.00;;;;;;;28.78;22.33;99693.72;6247465;22;20391;-82
2022/11/12 10:44:00;;;;;;;5.55;3.75;;;;;;;28.88;21.38;99706.91;6247138;22;20008;-82
2022/11/12 10:46:33;;;;;;;5.20;3.73;;;;;;;28.99;21.78;99701.06;6246771;23;20016;-82
2022/11/12 10:49:19;;;;;;;5.28;3.72;;;;;;;29.80;20.73;99691.94;6247461;22;19938;-82
2022/11/12 10:51:55;;;;;;;7.28;4.30;;;;;;;29.18;21.77;99687.03;6247138;22;19938;-82
2022/11/12 10:54:35;;;;;;;4.85;3.55;;;;;;;28.62;23.31;99690.75;6247115;22;20333;-82
2022/11/12 10:57:24;;;;;;;4.30;3.53;;;;;;;27.90;23.66;99687.22;6246926;22;19961;-82
2022/11/12 11:00:12;;;;;;;5.70;4.22;;;;;;;28.41;23.15;99683.34;6246691;22;19918;-82
2022/11/12 11:02:47;;;;;;;4.80;4.07;;;;;;;28.68;21.65;99683.41;6247120;23;19943;-82
2022/11/12 11:05:28;;;;;;;7.20;4.45;;;;;;;28.79;22.01;99684.03;6246603;22;19934;-82
2022/11/12 11:07:54;;;;;;;7.70;3.97;;;;;;;29.24;20.96;99679.63;6246992;22;20008;-81
2022/11/12 11:10:32;;;;;;;5.88;3.70;;;;;;;29.49;21.97;99681.22;6245480;23;19965;-82
2022/11/12 11:13:21;;;;;;;5.07;3.47;;;;;;;29.27;21.39;99672.31;6246708;22;19912;-82
2022/11/12 11:16:00;;;;;;;4.45;3.22;;;;;;;29.88;20.77;99667.94;6246202;22;19969;-82
2022/11/12 11:18:27;;;;;;;4.15;3.25;;;;;;;29.76;21.21;99667.78;6247214;22;20245;-82
2022/11/12 11:21:04;;;;;;;4.82;3.20;;;;;;;29.57;21.35;99668.56;6246822;22;19918;-82
2022/11/12 11:23:40;;;;;;;6.15;3.88;;;;;;;29.04;22.15;99661.78;6246769;23;19908;-82
2022/11/12 11:26:40;;;;;;;7.93;3.42;;;;;;;28.71;22.28;99655.06;6246914;22;19908;-82
2022/11/12 11:29:21;;;;;;;5.55;3.05;;;;;;;28.81;23.15;99658.16;6244650;23;19912;-82
2022/11/12 11:32:12;;;;;;;4.10;3.00;;;;;;;28.48;23.23;99660.66;6247164;22;19907;-82
2022/11/12 11:35:00;;;;;;;4.03;2.50;;;;;;;29.26;22.67;99651.75;6246644;23;19912;-82
2022/11/12 11:37:36;;;;;;;6.45;3.75;;;;;;;29.38;20.57;99648.25;6246490;23;19923;-82
2022/11/12 11:40:23;;;;;;;5.70;3.27;;;;;;;29.07;22.21;99646.78;6246417;22;20333;-82
2022/11/12 11:43:10;;;;;;;6.20;4.30;;;;;;;28.77;21.42;99648.94;6245267;23;20030;-82
2022/11/12 11:46:13;;;;;;;4.00;3.10;;;;;;;28.53;22.59;99650.88;6246254;22;19950;-83
2022/11/12 11:49:03;;;;;;;5.32;3.30;;;;;;;28.49;25.50;99641.66;6246643;23;20107;-82
2022/11/12 11:51:57;;;;;;;6.38;3.25;;;;;;;28.61;21.59;99638.28;6247036;23;19938;-82
2022/11/12 11:55:09;;;;;;;5.57;2.70;;;;;;;28.44;23.31;99639.31;6245432;23;20012;-82
2022/11/12 11:58:02;;;;;;;3.93;2.57;;;;;;;28.60;22.70;99636.69;6246206;23;19943;-82
2022/11/12 12:01:07;;;;;;;5.15;3.33;;;;;;;27.84;26.14;99645.78;6246270;23;19967;-84
2022/11/12 12:03:59;;;;;;;4.93;3.22;;;;;;;27.84;26.31;99646.56;6246477;23;20362;-83
2022/11/12 12:06:34;;;;;;;4.22;2.83;;;;;;;27.88;27.41;99641.69;6245065;22;19986;-83
2022/11/12 12:09:10;;;;;;;7.72;3.88;;;;;;;26.71;29.05;99644.03;6246298;22;19949;-83
2022/11/12 12:12:02;;;;;;;6.28;4.10;;;;;;;27.00;25.04;99644.66;6246476;23;19911;-83